Bezoek ook deze websites:

Template documentation
and downloads

And another site



METAR rapporten vliegvelden


Warning: curl_setopt(): CURLOPT_FOLLOWLOCATION cannot be activated when an open_basedir is set in /home/w16454we/public_html/weather28/metar/wsMetarTxt.php on line 747

Warning: curl_setopt(): CURLOPT_FOLLOWLOCATION cannot be activated when an open_basedir is set in /home/w16454we/public_html/weather28/metar/wsMetarTxt.php on line 747

Warning: curl_setopt(): CURLOPT_FOLLOWLOCATION cannot be activated when an open_basedir is set in /home/w16454we/public_html/weather28/metar/wsMetarTxt.php on line 747

Warning: curl_setopt(): CURLOPT_FOLLOWLOCATION cannot be activated when an open_basedir is set in /home/w16454we/public_html/weather28/metar/wsMetarTxt.php on line 747

Warning: curl_setopt(): CURLOPT_FOLLOWLOCATION cannot be activated when an open_basedir is set in /home/w16454we/public_html/weather28/metar/wsMetarTxt.php on line 747

Warning: curl_setopt(): CURLOPT_FOLLOWLOCATION cannot be activated when an open_basedir is set in /home/w16454we/public_html/weather28/metar/wsMetarTxt.php on line 747
   
EHVK - Volkel Rnlafb, Netherlands
Afstand tot: ZW 18 km
Gewijzigd: 13-07-2020 09:55
Helder  
Helder  
   Wind: Oosten 5.6 km/h
Wind: Oosten 5.6 km/h
Temperatuur: 19°C
Dauwpunt: 11°C
Vochtigheid: 60%
Barometer: 1024 hPa
Bewolking: Helder
Zicht: meer dan 10 km
Bewolking: Helder
EHVK 130755Z AUTO 10003KT 350V120 9999 NCD 19/11 Q1024 BLU BECMG 29005KT
EDLV - Niederrhein, Germany
Afstand tot: ZO 25 km
Gewijzigd: 13-07-2020 09:50
Helder  
Helder  
   Wind: varieert 5.6 km/h
Wind: varieert 5.6 km/h
Temperatuur: 18°C
Dauwpunt: 12°C
Vochtigheid: 68%
Barometer: 1025 hPa
Zicht: meer dan 10 km
Bewolking: Helder
EDLV 130750Z VRB03KT CAVOK 18/12 Q1025
EHDL - Deelen Rnlafb, Netherlands
Afstand tot: N 35 km
Gewijzigd: 13-07-2020 09:55
Helder  
Helder  
   Wind: varieert 1.9 km/h
Wind: varieert 1.9 km/h
Temperatuur: 20°C
Dauwpunt: 10°C
Vochtigheid: 53%
Barometer: 1024 hPa
Bewolking: Helder
Zicht: meer dan 10 km
Bewolking: Helder
EHDL 130755Z AUTO VRB01KT 9999 NCD 20/10 Q1024 BLU
EHEH - Eindhoven Rnlafb, Netherlands
Afstand tot: ZW 48 km
Gewijzigd: 13-07-2020 09:55
Helder  
Helder  
   Wind: Noorden 5.6 km/h
Wind: Noorden 5.6 km/h
Temperatuur: 19°C
Dauwpunt: 10°C
Vochtigheid: 56%
Barometer: 1024 hPa
Bewolking: Helder
Zicht: meer dan 10 km
Bewolking: Helder
EHEH 130755Z AUTO 36003KT 330V070 9999 NCD 19/10 Q1024 BLU VRB03KT CAVOK
EHGR - Gilze-Rijen Rnla, Netherlands
Afstand tot: WZW 70 km
Gewijzigd: 13-07-2020 09:55
Helder  
Helder  
   Wind: Oosten 5.6 km/h
Wind: Oosten 5.6 km/h
Temperatuur: 20°C
Dauwpunt: 10°C
Vochtigheid: 53%
Barometer: 1024 hPa
Bewolking: Helder
Zicht: meer dan 10 km
Bewolking: Helder
EHGR 130755Z AUTO 09003KT 040V180 9999 NCD 20/10 Q1024 BLU NOSIG
EBBL - Kleine-Brogel(Ba, Belgium
Afstand tot: ZZW 71 km
Gewijzigd: 13-07-2020 09:55
Licht bewolkt  
Licht bewolkt  
   Wind: varieert 3.7 km/h
Wind: varieert 3.7 km/h
Temperatuur: 19°C
Dauwpunt: 11°C
Vochtigheid: 60%
Barometer: 1024 hPa
Bewolking: Licht bewolkt
Zicht: meer dan 10 km
Bewolking: Licht bewolkt 25000 ft
EBBL 130755Z VRB02KT 9999 FEW250 19/11 Q1024 BLU BLU

Script ontwikkeld door  Saratoga-weather.org Aangepast voor de template door  Weerstation Leuven

U vindt ons ook hier:

Het Weer Aktueel

UK Metoffice

WeatherCloud

Weather Underground

AWEKAS

HAMweather, WeatherForYou, PWS Weather

Apparatuur in gebruik:

Weerstation
Davis Vantage Vue

Weerprogramma
Meteobridge

Davis Vantage Vue

Meteobridge